Time;durP1;ratioP1;P1;durP2;ratioP2;P2;SDS_P1;SDS_P2;PMS_P1;PMS_P2;Temp;Humidity;BMP_temperature;BMP_pressure;BME280_temperature;BME280_humidity;BME280_pressure;Samples;Min_cycle;Max_cycle;Signal;HPM_P1;HPM_P2
2021/07/30 00:00:51;;;;;;;0.32;0.32;;;;;;;17.89;57.19;101089.97;4957483;28;20183;-91
2021/07/30 00:03:23;;;;;;;0.00;0.00;;;;;;;17.89;56.36;101092.63;4984670;28;20121;-91
2021/07/30 00:05:54;;;;;;;0.10;0.10;;;;;;;17.86;56.82;101090.97;5018900;28;20481;-90
2021/07/30 00:08:24;;;;;;;0.17;0.17;;;;;;;17.77;56.56;101092.28;5038395;28;20025;-92
2021/07/30 00:10:58;;;;;;;0.10;0.10;;;;;;;17.79;56.32;101092.19;5040366;28;20020;-92
2021/07/30 00:13:25;;;;;;;0.00;0.00;;;;;;;17.67;56.89;101085.63;5038458;28;20036;-93
2021/07/30 00:15:52;;;;;;;1.48;0.55;;;;;;;17.78;56.34;101079.72;5036023;28;20030;-92
2021/07/30 00:18:24;;;;;;;0.10;0.10;;;;;;;17.87;56.51;101089.16;5039520;28;20033;-91
2021/07/30 00:21:26;;;;;;;0.20;0.20;;;;;;;17.92;56.00;101081.78;5042050;28;20092;-92
2021/07/30 00:23:53;;;;;;;0.10;0.10;;;;;;;17.78;56.37;101083.31;5059176;28;20395;-90
2021/07/30 00:26:20;;;;;;;0.10;0.10;;;;;;;17.86;55.89;101082.94;5064467;28;20377;-93
2021/07/30 00:28:46;;;;;;;0.10;0.10;;;;;;;17.86;55.85;101079.41;5068861;28;20027;-91
2021/07/30 00:31:15;;;;;;;0.03;0.03;;;;;;;17.82;55.75;101080.47;5068566;28;20111;-90
2021/07/30 00:33:42;;;;;;;0.10;0.10;;;;;;;17.82;56.19;101072.41;5068114;28;20028;-90
2021/07/30 00:36:08;;;;;;;0.95;0.95;;;;;;;17.83;55.84;101074.16;5068443;28;20082;-90
2021/07/30 00:38:35;;;;;;;0.38;0.38;;;;;;;17.82;55.91;101070.63;5054535;28;20029;-91
2021/07/30 00:41:01;;;;;;;0.20;0.20;;;;;;;17.79;55.66;101073.44;5055035;28;20021;-90
2021/07/30 00:43:28;;;;;;;0.10;0.10;;;;;;;17.81;55.89;101078.72;5053967;28;20112;-90
2021/07/30 00:45:59;;;;;;;0.00;0.00;;;;;;;17.85;55.59;101080.34;5026057;28;20524;-90
2021/07/30 00:48:27;;;;;;;0.10;0.10;;;;;;;17.78;56.18;101067.22;5032379;28;20388;-90
2021/07/30 00:50:57;;;;;;;0.30;0.30;;;;;;;17.81;55.92;101070.69;5042471;28;20025;-91
2021/07/30 00:53:25;;;;;;;0.17;0.17;;;;;;;17.78;55.81;101069.91;5054612;28;20490;-91
2021/07/30 00:55:53;;;;;;;1.23;0.52;;;;;;;17.77;56.27;101060.13;5054860;28;20568;-92
2021/07/30 00:58:20;;;;;;;0.17;0.17;;;;;;;17.78;56.31;101060.97;5054576;28;20032;-90
2021/07/30 01:00:47;;;;;;;0.15;0.15;;;;;;;17.77;56.17;101057.44;5054754;28;20056;-90
2021/07/30 01:03:40;;;;;;;;;;;;;;;;;;;;;
2021/07/30 01:06:23;;;;;;;0.00;0.00;;;;;;;17.76;56.19;101055.69;5054533;28;20514;-91
2021/07/30 01:08:59;;;;;;;0.38;0.38;;;;;;;17.74;56.33;101060.25;5054903;28;20545;-91
2021/07/30 01:11:36;;;;;;;0.00;0.00;;;;;;;17.66;56.01;101064.22;5055049;28;20025;-91
2021/07/30 01:14:02;;;;;;;0.75;0.75;;;;;;;17.63;56.39;101059.88;5054563;28;20481;-91
2021/07/30 01:16:29;;;;;;;0.10;0.10;;;;;;;17.58;56.38;101064.59;5054686;28;20033;-91
2021/07/30 01:18:55;;;;;;;0.20;0.20;;;;;;;17.53;56.39;101062.09;5054789;28;20086;-91
2021/07/30 01:21:33;;;;;;;0.25;0.25;;;;;;;17.55;56.79;101054.03;5054240;28;20021;-91
2021/07/30 01:24:03;;;;;;;0.95;0.95;;;;;;;17.50;56.76;101061.41;5054117;28;20079;-91
2021/07/30 01:26:29;;;;;;;0.20;0.20;;;;;;;17.49;56.77;101062.34;5054037;28;20037;-90
2021/07/30 01:28:56;;;;;;;0.10;0.10;;;;;;;17.41;57.06;101058.19;5054409;28;20025;-90
2021/07/30 01:31:27;;;;;;;0.10;0.10;;;;;;;17.41;57.20;101066.22;5054217;28;20119;-90
2021/07/30 01:33:56;;;;;;;0.17;0.17;;;;;;;17.42;56.72;101062.63;5053802;28;20492;-90
2021/07/30 01:36:22;;;;;;;0.10;0.10;;;;;;;17.38;57.76;101058.31;5053791;28;20536;-90
2021/07/30 01:39:05;;;;;;;0.10;0.10;;;;;;;17.42;57.31;101056.38;5054463;28;20033;-91
2021/07/30 01:41:31;;;;;;;0.20;0.20;;;;;;;17.40;57.55;101060.94;5055662;28;20056;-90
2021/07/30 01:43:58;;;;;;;0.00;0.00;;;;;;;17.39;57.44;101065.41;5054136;28;20505;-89
2021/07/30 01:46:27;;;;;;;0.10;0.10;;;;;;;17.40;57.36;101059.13;5053738;28;20475;-90
2021/07/30 01:48:59;;;;;;;0.55;0.55;;;;;;;17.40;57.65;101058.28;5052975;28;20036;-90
2021/07/30 01:51:26;;;;;;;0.10;0.10;;;;;;;17.39;57.29;101057.38;5053701;28;20029;-90
2021/07/30 01:53:52;;;;;;;0.00;0.00;;;;;;;17.36;57.68;101070.03;5049203;28;20029;-91
2021/07/30 01:56:21;;;;;;;0.10;0.10;;;;;;;17.34;57.84;101069.25;5053428;28;20182;-90
2021/07/30 01:58:48;;;;;;;0.05;0.05;;;;;;;17.30;57.72;101057.81;5053260;28;20472;-90
2021/07/30 02:01:14;;;;;;;0.10;0.10;;;;;;;17.31;58.00;101056.88;5049873;28;20056;-91
2021/07/30 02:03:41;;;;;;;0.10;0.10;;;;;;;17.30;58.03;101057.81;5027015;28;20108;-92
2021/07/30 02:06:09;;;;;;;0.32;0.32;;;;;;;17.31;57.59;101059.56;5050956;28;20501;-91
2021/07/30 02:08:36;;;;;;;0.10;0.10;;;;;;;17.29;57.85;101061.41;5054053;28;20471;-92
2021/07/30 02:11:08;;;;;;;0.00;0.00;;;;;;;17.34;57.77;101043.34;5053390;28;20037;-92
2021/07/30 02:16:21;;;;;;;0.10;0.10;;;;;;;17.20;57.88;101060.03;5053216;28;20037;-92
2021/07/30 02:18:49;;;;;;;0.10;0.10;;;;;;;17.20;58.50;101051.13;5053236;28;20029;-92
2021/07/30 02:21:15;;;;;;;0.13;0.13;;;;;;;17.18;58.34;101048.50;5053202;28;20035;-91
2021/07/30 02:23:43;;;;;;;0.50;0.50;;;;;;;17.17;58.50;101052.13;5053375;28;20025;-91
2021/07/30 02:26:09;;;;;;;0.08;0.08;;;;;;;17.15;58.36;101051.34;5053081;28;20037;-90
2021/07/30 02:28:36;;;;;;;0.10;0.10;;;;;;;17.10;59.06;101046.16;5053134;28;20491;-91
2021/07/30 02:31:02;;;;;;;0.10;0.10;;;;;;;17.12;58.71;101038.94;5053355;28;20079;-91
2021/07/30 02:33:29;;;;;;;0.08;0.08;;;;;;;17.11;58.91;101036.34;5052809;28;20033;-91
2021/07/30 02:35:55;;;;;;;0.10;0.10;;;;;;;17.11;58.81;101039.88;5053205;28;20021;-91
2021/07/30 02:38:22;;;;;;;0.05;0.05;;;;;;;17.10;59.01;101030.09;5053450;28;20025;-91
2021/07/30 02:40:48;;;;;;;0.00;0.00;;;;;;;17.10;59.00;101034.59;5037454;28;20040;-90
2021/07/30 02:43:14;;;;;;;0.47;0.47;;;;;;;17.09;58.87;101032.84;5053895;28;20021;-91
2021/07/30 02:45:41;;;;;;;0.15;0.15;;;;;;;17.10;58.92;101026.56;5052613;28;20054;-91
2021/07/30 02:48:08;;;;;;;0.10;0.10;;;;;;;17.12;58.83;101033.59;5066701;28;20009;-90
2021/07/30 02:50:34;;;;;;;0.10;0.10;;;;;;;17.11;59.37;101036.34;5053907;28;20017;-91
2021/07/30 02:53:00;;;;;;;0.20;0.20;;;;;;;17.12;58.87;101046.97;5057785;28;20033;-90
2021/07/30 02:55:30;;;;;;;0.00;0.00;;;;;;;17.14;58.79;101037.06;5054526;28;20028;-90
2021/07/30 02:57:56;;;;;;;0.00;0.00;;;;;;;17.12;59.19;101032.72;5052802;28;20048;-91
2021/07/30 03:00:25;;;;;;;0.10;0.10;;;;;;;17.12;59.48;101038.06;5052703;28;20416;-90
2021/07/30 03:02:52;;;;;;;0.10;0.10;;;;;;;17.09;59.65;101038.22;5044278;28;20353;-89
2021/07/30 03:05:18;;;;;;;0.10;0.10;;;;;;;17.09;59.23;101028.38;5052662;28;20052;-91
2021/07/30 03:07:44;;;;;;;0.10;0.10;;;;;;;17.07;59.55;101024.91;5052884;28;20067;-92
2021/07/30 03:10:11;;;;;;;0.10;0.10;;;;;;;17.04;59.73;101019.66;5052242;28;20083;-91
2021/07/30 03:12:37;;;;;;;7.45;1.00;;;;;;;17.02;59.39;101020.69;5052918;28;20032;-90
2021/07/30 03:15:04;;;;;;;0.10;0.10;;;;;;;16.98;59.57;101015.47;5052242;28;20029;-91
2021/07/30 03:17:30;;;;;;;0.00;0.00;;;;;;;17.01;59.94;101014.47;5052706;28;20423;-91
2021/07/30 03:19:57;;;;;;;0.00;0.00;;;;;;;16.99;60.14;101008.31;5052890;28;20385;-91
2021/07/30 03:22:23;;;;;;;0.10;0.10;;;;;;;17.00;60.14;101011.84;5052237;28;20025;-90
2021/07/30 03:24:50;;;;;;;0.10;0.10;;;;;;;17.02;60.01;101009.97;5052646;28;20033;-92
2021/07/30 03:27:27;;;;;;;0.10;0.10;;;;;;;17.01;60.31;100995.72;5052245;28;20123;-91
2021/07/30 03:29:58;;;;;;;0.10;0.10;;;;;;;17.04;60.15;100997.41;5052604;28;20086;-91
2021/07/30 03:33:08;;;;;;;0.10;0.10;;;;;;;17.10;59.68;100997.97;5035924;28;20025;-92
2021/07/30 03:35:56;;;;;;;;;;;;;;;;;;;;;
2021/07/30 03:38:30;;;;;;;0.10;0.10;;;;;;;17.08;59.65;100999.84;5021250;28;20068;-91
2021/07/30 03:41:00;;;;;;;0.32;0.32;;;;;;;17.10;60.34;100999.81;5052834;28;20033;-91
2021/07/30 03:43:27;;;;;;;0.10;0.10;;;;;;;17.11;59.91;100993.50;5051927;28;20472;-91
2021/07/30 03:45:55;;;;;;;0.40;0.40;;;;;;;17.14;60.00;100999.56;5040514;28;20078;-92
2021/07/30 03:48:21;;;;;;;0.10;0.10;;;;;;;17.16;59.42;101001.31;5051129;28;20029;-92
2021/07/30 03:50:51;;;;;;;0.10;0.10;;;;;;;17.17;59.73;100993.25;5039822;28;20098;-92
2021/07/30 03:53:17;;;;;;;0.10;0.10;;;;;;;17.17;59.93;100995.03;5051909;28;20115;-92
2021/07/30 03:55:44;;;;;;;0.10;0.10;;;;;;;17.17;60.27;100997.72;5052002;28;20487;-92
2021/07/30 03:58:11;;;;;;;0.10;0.10;;;;;;;17.19;59.49;100995.84;5051755;28;20033;-92
2021/07/30 04:00:40;;;;;;;0.20;0.20;;;;;;;17.23;59.52;100997.44;5045439;28;20051;-92
2021/07/30 04:03:06;;;;;;;0.10;0.10;;;;;;;17.17;60.33;101001.28;5021075;28;20041;-90
2021/07/30 04:05:32;;;;;;;0.10;0.10;;;;;;;17.22;60.12;101001.03;5020036;28;20434;-91
2021/07/30 04:07:58;;;;;;;0.17;0.17;;;;;;;17.23;59.80;101000.97;5023318;28;20033;-92
2021/07/30 04:10:26;;;;;;;0.10;0.10;;;;;;;17.25;59.81;101000.91;5026618;28;20025;-92
2021/07/30 04:12:53;;;;;;;0.10;0.10;;;;;;;17.29;59.71;100998.00;5024387;28;20041;-89
2021/07/30 04:15:20;;;;;;;1.65;1.20;;;;;;;17.30;60.25;100998.91;5035479;28;20063;-91
2021/07/30 04:17:48;;;;;;;0.10;0.10;;;;;;;17.32;60.06;100996.13;5035810;28;20529;-89
2021/07/30 04:20:14;;;;;;;0.47;0.47;;;;;;;17.36;60.32;100993.25;5036089;28;20026;-89
2021/07/30 04:22:43;;;;;;;0.10;0.10;;;;;;;17.41;59.94;100990.38;5036243;28;20041;-88
2021/07/30 04:25:09;;;;;;;0.10;0.10;;;;;;;17.43;59.93;100988.47;5035478;28;20649;-89
2021/07/30 04:27:38;;;;;;;0.10;0.10;;;;;;;17.51;59.80;100972.03;5035871;28;20053;-91
2021/07/30 04:30:04;;;;;;;0.10;0.10;;;;;;;17.56;59.46;100967.34;5035473;28;20038;-89
2021/07/30 04:32:31;;;;;;;0.10;0.10;;;;;;;17.62;59.79;100975.09;5030177;28;20465;-88
2021/07/30 04:34:57;;;;;;;0.10;0.10;;;;;;;17.66;59.72;100967.75;5035680;28;20034;-89
2021/07/30 04:37:23;;;;;;;0.10;0.10;;;;;;;17.72;59.80;100963.00;5035328;28;20043;-90
2021/07/30 04:39:49;;;;;;;0.10;0.10;;;;;;;17.77;59.61;100977.03;5032423;28;20061;-89
2021/07/30 04:42:16;;;;;;;0.30;0.30;;;;;;;17.78;59.45;100973.41;5025355;28;20021;-90
2021/07/30 04:44:44;;;;;;;0.20;0.20;;;;;;;17.87;59.09;100977.47;5025948;28;20038;-89
2021/07/30 04:47:11;;;;;;;0.38;0.38;;;;;;;17.89;59.20;100966.66;5024676;28;20030;-88
2021/07/30 04:49:40;;;;;;;0.13;0.13;;;;;;;17.96;58.78;100970.81;5032868;28;20040;-91
2021/07/30 04:52:06;;;;;;;0.10;0.10;;;;;;;17.98;59.11;100963.59;5022154;28;20126;-90
2021/07/30 04:54:35;;;;;;;0.00;0.00;;;;;;;18.05;59.46;100965.00;5015927;28;20066;-92
2021/07/30 04:57:02;;;;;;;0.10;0.10;;;;;;;18.08;59.09;100962.19;5036742;22;20035;-92
2021/07/30 04:59:28;;;;;;;0.13;0.13;;;;;;;18.13;59.22;100953.91;5010877;28;20035;-95
2021/07/30 05:01:54;;;;;;;0.10;0.10;;;;;;;18.15;58.76;100960.03;5014197;28;20469;-96
2021/07/30 05:04:23;;;;;;;0.60;0.60;;;;;;;18.21;59.06;100953.53;4998741;28;20038;-96
2021/07/30 05:06:49;;;;;;;0.03;0.03;;;;;;;18.25;58.90;100957.78;5007995;28;20535;-93
2021/07/30 05:13:24;;;;;;;0.20;0.20;;;;;;;18.40;59.06;100956.97;4959494;28;20044;-90
2021/07/30 05:16:35;;;;;;;0.20;0.20;;;;;;;18.46;58.61;100957.63;4919473;28;20434;-91
2021/07/30 05:22:48;;;;;;;0.10;0.10;;;;;;;18.43;58.80;100954.16;4806267;29;20056;-91
2021/07/30 05:25:40;;;;;;;2.45;0.70;;;;;;;18.37;58.72;100954.47;4981916;28;20396;-89
2021/07/30 05:28:09;;;;;;;0.30;0.30;;;;;;;18.47;58.71;100953.97;4975676;28;20125;-89
2021/07/30 05:30:57;;;;;;;0.10;0.10;;;;;;;18.47;58.55;100944.13;4994027;28;20022;-90
2021/07/30 05:33:30;;;;;;;0.00;0.00;;;;;;;18.56;58.44;100940.09;4994239;28;20029;-90
2021/07/30 05:36:10;;;;;;;0.57;0.57;;;;;;;18.61;58.29;100946.09;4992949;28;20041;-89
2021/07/30 05:38:39;;;;;;;0.15;0.15;;;;;;;18.72;57.96;100932.97;4992696;28;20030;-89
2021/07/30 05:41:10;;;;;;;1.70;1.33;;;;;;;18.72;57.80;100937.50;4990780;28;20034;-89
2021/07/30 05:43:52;;;;;;;0.10;0.10;;;;;;;18.83;58.13;100934.22;4990503;28;20125;-89
2021/07/30 05:46:21;;;;;;;0.25;0.25;;;;;;;18.97;57.51;100937.06;4974881;28;20528;-89
2021/07/30 05:49:06;;;;;;;0.28;0.28;;;;;;;19.15;57.53;100939.72;4975303;28;20031;-91
2021/07/30 05:52:35;;;;;;;;;;;;;;;;;;;;;
2021/07/30 05:55:17;;;;;;;0.30;0.30;;;;;;;19.35;56.65;100930.56;4947692;28;20444;-91
2021/07/30 06:10:54;;;;;;;0.10;0.10;;;;;;;19.89;56.64;100919.50;4823960;29;20055;-89
2021/07/30 06:13:44;;;;;;;0.30;0.30;;;;;;;19.95;56.03;100924.50;4965830;23;20079;-90
2021/07/30 06:16:54;;;;;;;0.10;0.10;;;;;;;20.04;55.97;100921.28;4973602;28;20062;-90
2021/07/30 06:19:33;;;;;;;0.10;0.10;;;;;;;20.07;55.85;100916.69;4925161;29;20040;-89
2021/07/30 06:22:35;;;;;;;0.45;0.45;;;;;;;20.22;55.55;100920.28;4973219;28;20103;-88
2021/07/30 06:25:52;;;;;;;;;;;;;;;;;;;;;
2021/07/30 06:28:32;;;;;;;0.10;0.10;;;;;;;20.26;55.65;100914.66;4908600;29;20032;-90
2021/07/30 06:31:00;;;;;;;0.10;0.10;;;;;;;20.32;55.29;100906.16;4932516;29;20114;-89
2021/07/30 06:33:28;;;;;;;0.15;0.15;;;;;;;20.41;55.59;100907.47;4917598;29;20118;-86
2021/07/30 06:35:55;;;;;;;0.10;0.10;;;;;;;20.47;55.56;100906.22;4943061;28;20035;-88
2021/07/30 06:38:22;;;;;;;0.10;0.10;;;;;;;20.51;56.12;100895.19;4979186;28;20043;-92
2021/07/30 06:40:54;;;;;;;0.73;0.73;;;;;;;20.62;54.93;100889.16;4987109;28;20030;-96
2021/07/30 06:46:15;;;;;;;0.10;0.10;;;;;;;20.89;54.78;100896.47;5324874;22;20025;-96
2021/07/30 06:48:41;;;;;;;0.10;0.10;;;;;;;20.91;54.02;100885.59;5022652;28;20440;-96
2021/07/30 06:51:15;;;;;;;0.73;0.73;;;;;;;21.01;54.02;100882.25;5020098;28;20375;-96
2021/07/30 06:53:47;;;;;;;1.85;0.77;;;;;;;21.06;53.83;100889.16;4987472;28;20478;-96
2021/07/30 06:56:24;;;;;;;0.10;0.10;;;;;;;21.00;53.15;100880.50;4955946;28;20134;-92
2021/07/30 06:58:50;;;;;;;4.20;0.77;;;;;;;21.10;53.26;100893.41;4998243;28;20482;-94
2021/07/30 07:01:22;;;;;;;0.10;0.10;;;;;;;21.20;53.57;100894.53;4995826;28;20418;-96
2021/07/30 07:03:48;;;;;;;;;;;;;;;21.37;53.48;100892.59;5002223;28;20034;-92
2021/07/30 07:06:16;;;;;;;0.10;0.10;;;;;;;21.29;53.30;100887.69;4996361;28;19926;-96
2021/07/30 07:08:50;;;;;;;0.10;0.10;;;;;;;21.42;53.13;100882.38;4994758;28;20031;-96
2021/07/30 07:11:16;;;;;;;0.10;0.10;;;;;;;21.48;53.03;100884.66;4982168;28;20129;-96
2021/07/30 07:13:45;;;;;;;0.30;0.30;;;;;;;21.52;52.47;100879.94;4975791;28;20027;-94
2021/07/30 07:18:49;;;;;;;0.20;0.20;;;;;;;21.68;52.35;100875.28;5620743;22;20046;-96
2021/07/30 07:21:38;;;;;;;1.90;0.77;;;;;;;21.84;51.18;100868.88;5005326;28;20054;-96
2021/07/30 07:24:16;;;;;;;0.30;0.30;;;;;;;21.77;51.08;100873.81;5011669;28;20053;-96
2021/07/30 07:26:52;;;;;;;0.20;0.20;;;;;;;21.81;51.24;100869.97;5012030;28;20030;-96
2021/07/30 07:29:21;;;;;;;0.13;0.13;;;;;;;21.92;51.70;100870.09;4978816;28;20045;-96
2021/07/30 07:31:48;;;;;;;0.20;0.20;;;;;;;21.98;51.54;100867.00;4984473;28;20045;-96
2021/07/30 07:52:44;;;;;;;0.30;0.30;;;;;;;22.76;49.62;100819.31;5013799;28;20047;-96
2021/07/30 07:55:24;;;;;;;0.22;0.20;;;;;;;22.98;49.12;100827.72;4963740;28;20043;-96
2021/07/30 07:57:56;;;;;;;0.17;0.17;;;;;;;23.06;49.58;100830.72;4991833;28;20034;-96
2021/07/30 08:11:25;;;;;;;0.73;0.73;;;;;;;23.68;48.39;100821.63;5755610;22;20045;-96
2021/07/30 08:14:17;;;;;;;0.10;0.10;;;;;;;23.70;47.25;100817.00;5259172;22;20051;-94
2021/07/30 08:16:45;;;;;;;0.10;0.10;;;;;;;23.79;47.80;100811.84;5035247;28;20025;-87
2021/07/30 08:19:11;;;;;;;0.20;0.20;;;;;;;23.80;46.81;100814.44;5029048;28;20017;-86
2021/07/30 08:21:38;;;;;;;0.30;0.30;;;;;;;23.97;47.55;100813.16;5027022;28;20033;-86
2021/07/30 08:24:04;;;;;;;0.40;0.40;;;;;;;23.71;45.81;100810.59;5036916;28;20080;-85
2021/07/30 08:26:31;;;;;;;0.10;0.10;;;;;;;23.81;46.44;100810.72;5033494;28;20095;-86
2021/07/30 08:28:57;;;;;;;0.10;0.10;;;;;;;23.96;46.65;100810.59;5027600;28;20056;-87
2021/07/30 08:31:24;;;;;;;0.10;0.10;;;;;;;23.98;46.95;100811.34;5025901;28;20032;-88
2021/07/30 08:33:51;;;;;;;0.40;0.40;;;;;;;23.97;44.94;100817.72;5022455;28;20057;-87
2021/07/30 08:36:17;;;;;;;0.30;0.30;;;;;;;24.21;46.24;100802.28;5026317;28;20076;-87
2021/07/30 08:38:44;;;;;;;0.10;0.10;;;;;;;24.45;46.82;100797.75;5026768;28;20045;-87
2021/07/30 08:41:10;;;;;;;0.10;0.10;;;;;;;24.64;46.60;100798.00;5027295;28;20026;-86
2021/07/30 08:43:36;;;;;;;0.60;0.60;;;;;;;24.51;45.34;100799.97;5026207;28;20022;-88
2021/07/30 08:46:04;;;;;;;0.45;0.45;;;;;;;24.77;45.81;100788.91;5025223;28;20034;-85
2021/07/30 08:48:33;;;;;;;0.77;0.77;;;;;;;24.73;44.93;100788.28;5021685;28;20033;-85
2021/07/30 08:51:00;;;;;;;0.70;0.52;;;;;;;24.79;44.07;100778.81;5027272;28;20022;-86
2021/07/30 08:56:17;;;;;;;0.20;0.20;;;;;;;25.05;44.57;100784.81;4995130;28;20085;-93
2021/07/30 09:06:51;;;;;;;0.20;0.20;;;;;;;24.79;43.92;100771.53;5991717;22;20054;-91
2021/07/30 09:09:57;;;;;;;0.10;0.10;;;;;;;25.04;44.32;100767.66;5029714;28;20061;-95
2021/07/30 10:57:36;;;;;;;0.28;0.20;;;;;;;25.62;43.37;100668.00;5923865;22;20045;-95
2021/07/30 11:22:38;;;;;;;0.20;0.20;;;;;;;25.84;43.92;100665.16;5257448;22;20072;-88
2021/07/30 11:25:13;;;;;;;1.13;0.40;;;;;;;25.85;43.64;100663.28;5004774;28;20039;-95
2021/07/30 12:26:00;;;;;;;2.00;1.05;;;;;;;25.97;44.08;100620.59;5887962;22;20109;-96
2021/07/30 13:06:51;;;;;;;0.20;0.20;;;;;;;22.72;57.35;100663.03;5556427;22;20056;-96
2021/07/30 13:10:18;;;;;;;0.10;0.10;;;;;;;22.35;58.63;100671.94;5031607;28;20056;-94
2021/07/30 13:12:49;;;;;;;0.08;0.08;;;;;;;22.11;59.63;100674.59;5021586;28;20033;-92
2021/07/30 13:15:17;;;;;;;1.08;0.95;;;;;;;21.69;62.32;100682.03;5022197;28;20469;-92
2021/07/30 13:17:53;;;;;;;0.10;0.10;;;;;;;21.41;63.62;100683.88;5027908;28;20025;-91
2021/07/30 13:20:29;;;;;;;0.10;0.10;;;;;;;21.27;63.72;100693.78;5022257;28;20026;-90
2021/07/30 13:22:55;;;;;;;0.10;0.10;;;;;;;21.11;64.21;100677.78;5021073;28;20040;-86
2021/07/30 13:25:38;;;;;;;0.20;0.20;;;;;;;21.11;65.86;100676.91;5023584;28;20036;-87
2021/07/30 13:29:40;;;;;;;;;;;;;;;;;;;;;
2021/07/30 13:31:36;;;;;;;0.10;0.10;;;;;;;21.19;66.82;100653.03;4978197;28;20026;-89
2021/07/30 13:34:05;;;;;;;0.10;0.10;;;;;;;21.23;66.29;100653.69;5029420;28;20029;-89
2021/07/30 13:36:32;;;;;;;0.45;0.45;;;;;;;21.23;65.49;100640.22;5033869;28;20044;-90
2021/07/30 13:38:58;;;;;;;0.10;0.10;;;;;;;21.56;67.82;100628.09;5031638;28;20563;-91
2021/07/30 13:41:24;;;;;;;0.10;0.10;;;;;;;21.98;67.84;100624.19;5024250;28;20072;-92
2021/07/30 13:43:50;;;;;;;0.22;0.22;;;;;;;22.37;65.77;100609.75;5023729;28;20492;-92
2021/07/30 13:46:32;;;;;;;0.47;0.47;;;;;;;22.69;64.60;100610.13;5027870;28;20413;-90
2021/07/30 13:49:07;;;;;;;0.10;0.10;;;;;;;22.76;64.51;100619.44;5015042;28;20405;-92
2021/07/30 13:51:42;;;;;;;0.30;0.30;;;;;;;22.88;63.73;100614.97;5014788;28;20030;-93
2021/07/30 13:54:40;;;;;;;0.10;0.10;;;;;;;23.12;62.97;100605.13;5014481;28;20026;-93
2021/07/30 13:57:08;;;;;;;0.22;0.22;;;;;;;23.20;63.98;100586.50;5013840;28;20066;-90
2021/07/30 13:59:35;;;;;;;0.10;0.10;;;;;;;23.51;64.07;100584.09;5014531;28;20026;-89
2021/07/30 14:02:07;;;;;;;0.15;0.15;;;;;;;23.69;62.40;100584.47;5014889;28;20430;-93
2021/07/30 14:05:19;;;;;;;;;;;;;;;;;;;;;
2021/07/30 14:07:47;;;;;;;0.10;0.10;;;;;;;24.09;59.89;100570.47;4986866;28;20494;-90
2021/07/30 14:10:16;;;;;;;0.10;0.10;;;;;;;24.19;59.08;100568.75;5014411;28;20057;-93
2021/07/30 14:12:45;;;;;;;0.15;0.15;;;;;;;24.20;58.26;100567.75;5014778;28;20049;-92
2021/07/30 14:15:14;;;;;;;1.83;1.58;;;;;;;24.11;56.84;100568.50;5014996;28;20109;-90
2021/07/30 14:17:41;;;;;;;0.20;0.20;;;;;;;24.25;57.71;100561.97;5014114;28;20030;-90
2021/07/30 14:20:09;;;;;;;0.10;0.10;;;;;;;24.35;56.59;100564.75;5014607;28;20033;-90
2021/07/30 14:22:36;;;;;;;0.43;0.43;;;;;;;24.41;55.97;100569.66;5014785;28;20037;-90
2021/07/30 14:25:05;;;;;;;0.20;0.20;;;;;;;24.62;56.67;100555.31;5014476;28;20467;-92
2021/07/30 14:29:11;;;;;;;0.32;0.32;;;;;;;24.69;55.53;100557.41;5017476;28;20026;-94
2021/07/30 14:30:44;;;;;;;0.10;0.10;;;;;;;24.39;55.17;100558.97;4992376;28;20497;-93
2021/07/30 14:33:16;;;;;;;1.00;0.63;;;;;;;24.44;53.64;100553.16;5020180;28;20025;-94
2021/07/30 14:35:44;;;;;;;;;;;;;;;24.23;55.00;100562.06;5015330;28;20044;-93
2021/07/30 14:38:10;;;;;;;0.75;0.75;;;;;;;24.05;54.18;100558.16;5014538;28;19921;-91
2021/07/30 14:41:26;;;;;;;0.20;0.20;;;;;;;23.88;55.40;100560.38;5014088;28;20038;-95
2021/07/30 14:44:06;;;;;;;0.10;0.10;;;;;;;23.80;56.45;100560.16;5013753;28;20547;-94
2021/07/30 14:47:21;;;;;;;0.20;0.20;;;;;;;23.59;55.88;100552.75;5018338;28;20036;-95
2021/07/30 14:59:09;;;;;;;0.10;0.10;;;;;;;22.11;51.54;100607.13;5188620;22;20054;-96
2021/07/30 15:13:24;;;;;;;0.10;0.10;;;;;;;22.46;53.23;100563.22;4912171;29;20447;-93
2021/07/30 15:22:22;;;;;;;0.10;0.10;;;;;;;23.49;52.63;100562.59;4984630;28;20099;-96
2021/07/30 15:24:48;;;;;;;0.10;0.10;;;;;;;23.89;52.69;100558.56;5016828;28;20029;-96
2021/07/30 15:27:14;;;;;;;0.10;0.10;;;;;;;24.19;50.97;100560.63;5012136;28;20491;-90
2021/07/30 15:29:41;;;;;;;0.30;0.30;;;;;;;24.37;49.83;100563.66;5013349;28;20394;-86
2021/07/30 15:32:07;;;;;;;2.05;1.48;;;;;;;24.36;48.84;100550.22;5015021;28;20113;-86
2021/07/30 15:34:34;;;;;;;0.05;0.05;;;;;;;24.80;48.52;100552.94;5011310;28;20034;-87
2021/07/30 15:37:00;;;;;;;0.10;0.10;;;;;;;25.02;47.85;100546.53;5014631;28;20057;-87
2021/07/30 15:39:28;;;;;;;0.10;0.10;;;;;;;25.05;46.64;100562.56;5013307;28;20030;-89
2021/07/30 15:41:57;;;;;;;0.10;0.10;;;;;;;25.33;46.22;100554.72;5013047;28;20026;-87
2021/07/30 15:44:30;;;;;;;0.20;0.20;;;;;;;25.38;46.10;100557.94;5010275;28;20025;-90
2021/07/30 15:46:56;;;;;;;0.30;0.30;;;;;;;25.63;46.32;100553.06;5016611;28;20102;-91
2021/07/30 15:51:53;;;;;;;0.10;0.10;;;;;;;26.00;44.99;100536.19;4994172;28;20502;-87
2021/07/30 15:54:19;;;;;;;0.13;0.13;;;;;;;25.97;44.33;100547.31;5008886;28;20042;-88
2021/07/30 15:56:53;;;;;;;0.40;0.40;;;;;;;25.34;44.95;100545.59;5004474;28;20073;-95
2021/07/30 16:00:14;;;;;;;0.10;0.10;;;;;;;25.47;45.94;100539.97;4997673;28;20027;-90
2021/07/30 16:02:46;;;;;;;0.10;0.10;;;;;;;25.04;46.92;100547.28;4962376;28;20043;-95
2021/07/30 16:08:53;;;;;;;0.10;0.10;;;;;;;23.56;52.04;100574.66;4998299;28;20185;-91
2021/07/30 16:11:34;;;;;;;0.10;0.10;;;;;;;23.03;52.91;100593.16;5008014;28;20111;-91
2021/07/30 16:14:49;;;;;;;0.10;0.10;;;;;;;22.35;54.32;100579.31;5002750;28;20072;-93
2021/07/30 16:24:52;;;;;;;0.10;0.10;;;;;;;22.41;53.54;100560.00;4919616;29;20467;-94
2021/07/30 17:14:56;;;;;;;0.35;0.35;;;;;;;25.87;39.21;100497.59;5759691;22;19934;-93
2021/07/30 17:20:51;;;;;;;0.10;0.10;;;;;;;26.52;39.30;100524.28;5096668;22;20046;-95
2021/07/30 17:23:17;;;;;;;0.10;0.10;;;;;;;26.05;39.08;100506.78;4953243;28;20047;-89
2021/07/30 17:26:01;;;;;;;0.10;0.10;;;;;;;25.91;39.56;100504.47;4945055;28;20212;-95
2021/07/30 17:28:27;;;;;;;0.10;0.10;;;;;;;25.66;41.00;100495.81;4989242;28;20490;-92
2021/07/30 17:31:09;;;;;;;;;;;;;;;;;;;;;
2021/07/30 17:33:58;;;;;;;0.10;0.10;;;;;;;25.42;40.97;100505.16;4977751;28;20122;-95
2021/07/30 17:36:26;;;;;;;0.10;0.10;;;;;;;25.60;41.89;100508.06;5073446;22;20345;-94
2021/07/30 17:38:56;;;;;;;0.10;0.10;;;;;;;25.72;40.29;100508.84;4998652;22;20105;-90
2021/07/30 17:44:20;;;;;;;0.10;0.10;;;;;;;25.73;40.66;100510.53;5567927;22;20080;-91
2021/07/30 17:46:56;;;;;;;0.13;0.13;;;;;;;25.16;41.31;100510.97;4988531;28;20172;-93
2021/07/30 17:49:22;;;;;;;0.10;0.10;;;;;;;25.34;40.90;100504.94;4991351;28;20103;-90
2021/07/30 17:52:06;;;;;;;0.30;0.30;;;;;;;24.77;41.10;100505.28;4992921;28;20022;-90
2021/07/30 17:54:33;;;;;;;0.10;0.10;;;;;;;24.25;42.29;100499.72;4991539;28;20030;-88
2021/07/30 17:57:02;;;;;;;0.08;0.08;;;;;;;23.79;43.58;100512.44;4990620;28;20126;-94
2021/07/30 17:59:58;;;;;;;0.10;0.10;;;;;;;23.46;44.06;100524.97;4994121;28;20082;-90
2021/07/30 19:39:31;;;;;;;;;;;;;;;;;;;;;
2021/07/30 19:57:21;;;;;;;0.10;0.10;;;;;;;20.50;53.77;100513.13;4979677;26;20043;-93
2021/07/30 20:52:52;;;;;;;0.10;0.10;;;;;;;20.42;54.79;100475.09;5066028;22;20054;-92
2021/07/30 20:55:18;;;;;;;0.20;0.20;;;;;;;20.17;55.45;100463.28;4965832;28;20044;-89
2021/07/30 20:58:06;;;;;;;0.10;0.10;;;;;;;19.96;56.10;100474.50;5003654;28;20030;-90
2021/07/30 21:00:45;;;;;;;0.05;0.05;;;;;;;20.31;55.56;100462.34;4992770;28;20529;-91
2021/07/30 21:03:29;;;;;;;0.10;0.10;;;;;;;20.12;56.01;100462.72;5008139;28;20499;-90
2021/07/30 21:06:18;;;;;;;0.57;0.57;;;;;;;19.86;56.81;100465.28;5004309;28;20037;-88
2021/07/30 21:10:23;;;;;;;0.10;0.10;;;;;;;20.17;56.42;100465.97;5004148;28;20030;-91
2021/07/30 22:18:07;;;;;;;0.00;0.00;;;;;;;19.75;57.89;100465.09;5558906;22;20061;-87
2021/07/30 22:20:35;;;;;;;0.10;0.10;;;;;;;19.89;57.42;100432.84;5036510;28;20477;-92
2021/07/30 22:23:03;;;;;;;0.10;0.10;;;;;;;19.60;58.30;100450.81;5023515;28;20030;-89